createdAt,value
2023-05-03T00:02:24.590Z,2.25
2023-05-03T00:04:54.744Z,0.90
2023-05-03T00:07:22.870Z,0.88
2023-05-03T00:09:50.062Z,1.27
2023-05-03T00:12:17.111Z,1.00
2023-05-03T00:14:45.768Z,1.05
2023-05-03T00:17:13.146Z,1.50
2023-05-03T00:19:40.183Z,0.93
2023-05-03T00:22:07.746Z,0.80
2023-05-03T00:24:35.777Z,1.17
2023-05-03T00:27:04.999Z,0.90
2023-05-03T00:29:32.970Z,1.25
2023-05-03T00:32:00.493Z,0.98
2023-05-03T00:34:27.662Z,0.68
2023-05-03T00:36:54.661Z,0.95
2023-05-03T00:39:21.690Z,1.15
2023-05-03T00:41:48.658Z,1.40
2023-05-03T00:44:15.772Z,0.98
2023-05-03T00:46:42.870Z,1.00
2023-05-03T00:49:10.330Z,1.50
2023-05-03T00:51:37.466Z,1.00
2023-05-03T00:54:04.828Z,1.27
2023-05-03T00:56:38.007Z,1.13
2023-05-03T00:59:15.474Z,0.93
2023-05-03T01:01:43.243Z,1.08
2023-05-03T01:04:10.368Z,0.88
2023-05-03T01:07:07.830Z,1.40
2023-05-03T01:09:51.529Z,1.33
2023-05-03T01:12:35.662Z,1.95
2023-05-03T01:15:57.424Z,1.30
2023-05-03T01:18:33.942Z,1.35
2023-05-03T01:21:02.434Z,1.50
2023-05-03T01:23:55.332Z,1.40
2023-05-03T01:26:24.959Z,1.25
2023-05-03T01:28:52.206Z,1.50
2023-05-03T01:31:57.025Z,1.80
2023-05-03T01:34:55.018Z,1.17
2023-05-03T01:37:22.697Z,1.80
2023-05-03T01:40:03.983Z,1.50
2023-05-03T01:42:35.277Z,2.20
2023-05-03T01:45:04.716Z,1.08
2023-05-03T01:47:31.912Z,1.55
2023-05-03T01:49:59.567Z,0.98
2023-05-03T01:52:27.001Z,0.93
2023-05-03T01:54:53.942Z,0.95
2023-05-03T01:57:20.903Z,1.35
2023-05-03T01:59:47.909Z,1.10
2023-05-03T02:02:14.822Z,1.02
2023-05-03T02:04:41.924Z,1.30
2023-05-03T02:07:09.301Z,1.35
2023-05-03T02:09:36.630Z,1.05
2023-05-03T02:12:03.803Z,1.60
2023-05-03T02:14:32.989Z,1.23
2023-05-03T02:17:00.702Z,1.40
2023-05-03T02:19:27.722Z,0.82
2023-05-03T02:21:54.754Z,2.65
2023-05-03T02:24:24.052Z,1.73
2023-05-03T02:26:51.050Z,1.65
2023-05-03T02:29:18.121Z,1.30
2023-05-03T02:31:45.877Z,1.45
2023-05-03T02:34:12.889Z,1.23
2023-05-03T02:36:39.861Z,1.23
2023-05-03T02:39:07.185Z,1.08
2023-05-03T02:41:34.182Z,1.90
2023-05-03T02:44:01.741Z,1.45
2023-05-03T02:46:28.771Z,0.93
2023-05-03T02:48:55.809Z,1.40
2023-05-03T02:51:22.832Z,1.50
2023-05-03T02:53:49.922Z,1.42
2023-05-03T02:56:16.949Z,2.75
2023-05-03T02:58:43.942Z,1.33
2023-05-03T03:01:11.882Z,1.00
2023-05-03T03:03:39.029Z,1.40
2023-05-03T03:06:06.242Z,1.30
2023-05-03T03:08:37.130Z,1.48
2023-05-03T03:11:06.186Z,1.25
2023-05-03T03:13:33.631Z,1.20
2023-05-03T03:16:02.154Z,1.38
2023-05-03T03:18:29.162Z,1.10
2023-05-03T03:20:56.093Z,1.58
2023-05-03T03:23:23.258Z,1.48
2023-05-03T03:25:50.473Z,1.05
2023-05-03T03:28:18.180Z,1.98
2023-05-03T03:30:45.870Z,1.67
2023-05-03T03:33:23.609Z,1.20
2023-05-03T03:35:52.576Z,1.60
2023-05-03T03:38:23.014Z,1.45
2023-05-03T03:40:56.889Z,1.38
2023-05-03T03:43:24.373Z,1.90
2023-05-03T03:45:52.531Z,1.10
2023-05-03T03:48:19.660Z,1.25
2023-05-03T03:50:48.167Z,1.30
2023-05-03T03:53:15.491Z,1.90
2023-05-03T03:55:42.871Z,1.75
2023-05-03T03:58:09.868Z,1.90
2023-05-03T04:00:38.021Z,1.50
2023-05-03T04:03:11.620Z,1.63
2023-05-03T04:05:38.819Z,1.67
2023-05-03T04:08:06.242Z,2.15
2023-05-03T04:10:35.019Z,1.40
2023-05-03T04:13:02.400Z,1.60
2023-05-03T04:15:29.651Z,1.52
2023-05-03T04:17:59.091Z,1.77
2023-05-03T04:20:26.954Z,1.50
2023-05-03T04:22:54.890Z,1.85
2023-05-03T04:25:25.781Z,2.17
2023-05-03T04:27:59.037Z,1.70
2023-05-03T04:30:29.428Z,2.45
2023-05-03T04:33:00.770Z,1.65
2023-05-03T04:35:30.012Z,1.95
2023-05-03T04:37:59.983Z,1.83
2023-05-03T04:40:29.150Z,2.10
2023-05-03T04:43:02.206Z,2.22
2023-05-03T04:45:31.541Z,1.77
2023-05-03T04:47:59.047Z,1.70
2023-05-03T04:50:26.132Z,1.80
2023-05-03T04:52:53.065Z,2.13
2023-05-03T04:55:21.825Z,1.77
2023-05-03T04:57:48.997Z,2.03
2023-05-03T05:00:17.321Z,2.05
2023-05-03T05:02:51.416Z,2.28
2023-05-03T05:05:20.236Z,1.52
2023-05-03T05:07:47.949Z,1.77
2023-05-03T05:10:16.957Z,1.63
2023-05-03T05:12:44.485Z,1.50
2023-05-03T05:15:11.868Z,1.50
2023-05-03T05:17:40.097Z,2.20
2023-05-03T05:20:12.461Z,1.70
2023-05-03T05:22:43.131Z,1.75
2023-05-03T05:25:10.352Z,1.67
2023-05-03T05:27:37.451Z,1.20
2023-05-03T05:30:06.642Z,1.80
2023-05-03T05:32:35.068Z,1.33
2023-05-03T05:35:03.335Z,1.75
2023-05-03T05:37:30.396Z,1.70
2023-05-03T05:40:01.106Z,1.85
2023-05-03T05:42:34.317Z,1.45
2023-05-03T05:45:01.520Z,1.40
2023-05-03T05:47:28.593Z,1.75
2023-05-03T05:49:58.095Z,1.25
2023-05-03T05:52:25.337Z,1.98
2023-05-03T05:54:52.516Z,1.70
2023-05-03T05:57:20.106Z,1.80
2023-05-03T05:59:47.171Z,1.80
2023-05-03T06:02:17.910Z,2.20
2023-05-03T06:04:47.544Z,1.65
2023-05-03T06:07:16.833Z,1.58
2023-05-03T06:09:43.960Z,2.05
2023-05-03T06:12:12.657Z,2.35
2023-05-03T06:14:51.722Z,2.55
2023-05-03T06:17:29.557Z,2.25
2023-05-03T06:19:58.037Z,2.97
2023-05-03T06:22:25.495Z,2.20
2023-05-03T06:24:53.381Z,2.75
2023-05-03T06:27:20.589Z,1.70
2023-05-03T06:29:50.876Z,2.38
2023-05-03T06:32:19.458Z,2.53
2023-05-03T06:34:46.718Z,2.60
2023-05-03T06:37:14.264Z,2.00
2023-05-03T06:39:41.707Z,2.90
2023-05-03T06:42:08.778Z,2.75
2023-05-03T06:44:39.073Z,2.60
2023-05-03T06:47:06.233Z,2.65
2023-05-03T06:49:33.779Z,2.40
2023-05-03T06:52:01.080Z,2.10
2023-05-03T06:54:28.173Z,2.47
2023-05-03T06:56:55.357Z,2.22
2023-05-03T06:59:22.339Z,1.85
2023-05-03T07:01:50.849Z,1.85
2023-05-03T07:04:17.947Z,2.08
2023-05-03T07:06:56.000Z,2.08
2023-05-03T07:09:35.497Z,1.80
2023-05-03T07:14:36.808Z,2.13
2023-05-03T07:17:03.880Z,1.92
2023-05-03T07:19:32.920Z,2.65
2023-05-03T07:22:00.255Z,2.17
2023-05-03T07:24:27.337Z,1.70
2023-05-03T07:26:54.584Z,2.05
2023-05-03T07:29:22.015Z,1.58
2023-05-03T07:31:50.348Z,2.45
2023-05-03T07:34:19.078Z,1.88
2023-05-03T07:36:46.197Z,1.60
2023-05-03T07:39:13.277Z,1.23
2023-05-03T07:41:40.586Z,1.33
2023-05-03T07:44:07.888Z,1.77
2023-05-03T07:46:35.549Z,1.00
2023-05-03T07:49:04.849Z,1.08
2023-05-03T07:51:38.870Z,1.60
2023-05-03T07:54:08.684Z,0.80
2023-05-03T07:56:35.996Z,1.10
2023-05-03T08:01:33.366Z,1.23
2023-05-03T08:04:00.785Z,0.82
2023-05-03T08:06:28.385Z,1.15
2023-05-03T08:08:55.470Z,1.15
2023-05-03T08:11:22.676Z,1.10
2023-05-03T08:13:49.676Z,0.90
2023-05-03T08:16:20.112Z,1.63
2023-05-03T08:18:47.388Z,1.60
2023-05-03T08:21:15.274Z,1.60
2023-05-03T08:23:42.576Z,1.30
2023-05-03T08:26:10.013Z,1.45
2023-05-03T08:28:38.120Z,1.42
2023-05-03T08:31:05.217Z,1.35
2023-05-03T08:33:32.386Z,2.00
2023-05-03T08:35:59.546Z,1.67
2023-05-03T08:38:26.532Z,1.85
2023-05-03T08:40:58.829Z,1.48
2023-05-03T08:43:28.231Z,1.60
2023-05-03T08:45:55.649Z,1.00
2023-05-03T08:48:23.381Z,1.10
2023-05-03T08:50:52.759Z,1.10
2023-05-03T08:53:19.979Z,1.20
2023-05-03T08:55:47.178Z,1.00
2023-05-03T08:58:14.487Z,1.10
2023-05-03T09:00:45.384Z,1.17
2023-05-03T09:03:13.266Z,0.85
2023-05-03T09:05:40.605Z,1.08
2023-05-03T09:08:13.725Z,1.90
2023-05-03T09:10:42.797Z,1.70
2023-05-03T09:13:10.861Z,1.65
2023-05-03T09:15:38.073Z,1.20
2023-05-03T09:18:19.860Z,1.30
2023-05-03T09:20:52.858Z,0.80
2023-05-03T09:23:27.131Z,1.45
2023-05-03T09:25:54.560Z,2.03
2023-05-03T09:28:22.663Z,1.60
2023-05-03T09:30:51.181Z,1.30
2023-05-03T09:33:29.704Z,1.40
2023-05-03T09:36:05.097Z,2.25
2023-05-03T09:38:35.029Z,1.00
2023-05-03T09:41:03.320Z,1.02
2023-05-03T09:43:30.311Z,1.27
2023-05-03T09:46:13.258Z,1.45
2023-05-03T09:48:41.930Z,1.42
2023-05-03T09:51:11.542Z,1.42
2023-05-03T09:53:40.550Z,1.90
2023-05-03T09:56:13.692Z,1.67
2023-05-03T09:58:44.563Z,2.28
2023-05-03T10:01:15.060Z,2.30
2023-05-03T10:03:52.993Z,1.63
2023-05-03T10:06:39.209Z,1.50
2023-05-03T10:12:08.379Z,1.80
2023-05-03T10:14:36.284Z,1.75
2023-05-03T10:17:08.871Z,1.25
2023-05-03T10:20:42.179Z,1.80
2023-05-03T10:23:13.580Z,1.90
2023-05-03T10:26:13.397Z,1.25
2023-05-03T10:28:40.784Z,1.58
2023-05-03T10:31:48.542Z,1.55
2023-05-03T10:34:27.988Z,1.83
2023-05-03T10:36:55.076Z,1.50
2023-05-03T10:39:22.918Z,1.90
2023-05-03T10:42:07.960Z,1.52
2023-05-03T10:44:55.004Z,1.75
2023-05-03T10:47:24.437Z,1.50
2023-05-03T10:50:16.078Z,1.60
2023-05-03T10:52:43.157Z,1.83
2023-05-03T10:55:19.060Z,1.80
2023-05-03T10:57:48.393Z,1.80
2023-05-03T11:00:22.267Z,1.63
2023-05-03T11:03:16.364Z,1.70
2023-05-03T11:05:43.528Z,1.60
2023-05-03T11:08:13.328Z,1.60
2023-05-03T11:10:41.892Z,1.95
2023-05-03T11:13:09.058Z,1.70
2023-05-03T11:15:36.691Z,1.17
2023-05-03T11:18:06.428Z,1.73
2023-05-03T11:20:34.157Z,1.83
2023-05-03T11:23:01.206Z,1.60
2023-05-03T11:25:28.869Z,1.92
2023-05-03T11:27:56.334Z,2.22
2023-05-03T11:30:23.322Z,1.73
2023-05-03T11:32:51.094Z,2.00
2023-05-03T11:35:18.475Z,2.08
2023-05-03T11:37:46.038Z,2.10
2023-05-03T11:40:18.741Z,1.80
2023-05-03T11:42:57.056Z,2.00
2023-05-03T11:45:33.357Z,1.80
2023-05-03T11:48:00.744Z,2.03
2023-05-03T11:50:51.487Z,1.80
2023-05-03T11:53:19.632Z,2.38
2023-05-03T11:55:50.486Z,1.60
2023-05-03T11:58:24.880Z,1.88
2023-05-03T12:00:54.771Z,1.88
2023-05-03T12:03:30.183Z,2.30
2023-05-03T12:05:59.040Z,1.65
2023-05-03T12:08:36.468Z,2.22
2023-05-03T12:11:07.343Z,1.75
2023-05-03T12:13:39.864Z,1.27
2023-05-03T12:16:13.678Z,2.20
2023-05-03T12:19:03.072Z,1.95
2023-05-03T12:24:20.668Z,1.58
2023-05-03T12:26:48.952Z,1.80
2023-05-03T12:29:19.254Z,2.53
2023-05-03T12:31:49.108Z,1.83
2023-05-03T12:34:31.807Z,2.15
2023-05-03T12:37:04.869Z,1.98
2023-05-03T12:39:33.374Z,1.77
2023-05-03T12:44:35.143Z,2.17
2023-05-03T12:47:04.086Z,2.00
2023-05-03T12:49:32.004Z,2.25
2023-05-03T12:54:33.663Z,2.78
2023-05-03T12:57:08.219Z,2.90
2023-05-03T12:59:41.904Z,1.95
2023-05-03T13:07:15.217Z,2.45
2023-05-03T13:12:20.538Z,2.70
2023-05-03T13:14:52.664Z,2.28
2023-05-03T13:17:22.514Z,2.10
2023-05-03T13:19:51.748Z,2.00
2023-05-03T13:22:19.268Z,3.08
2023-05-03T13:24:48.016Z,2.40
2023-05-03T13:27:16.568Z,2.20
2023-05-03T13:29:44.427Z,2.35
2023-05-03T13:32:13.149Z,2.45
2023-05-03T13:34:40.550Z,2.13
2023-05-03T13:37:07.685Z,1.63
2023-05-03T13:39:34.838Z,2.20
2023-05-03T13:42:02.412Z,2.90
2023-05-03T13:44:29.597Z,2.78
2023-05-03T13:46:57.232Z,1.90
2023-05-03T13:49:25.532Z,2.60
2023-05-03T13:51:52.851Z,2.20
2023-05-03T13:54:20.368Z,2.25
2023-05-03T13:56:47.771Z,2.35
2023-05-03T13:59:15.118Z,2.85
2023-05-03T14:01:43.365Z,2.33
2023-05-03T14:04:10.963Z,3.17
2023-05-03T14:06:41.373Z,3.20
2023-05-03T14:09:09.906Z,2.63
2023-05-03T14:11:38.007Z,2.50
2023-05-03T14:14:05.470Z,2.50
2023-05-03T14:16:40.728Z,2.70
2023-05-03T14:19:12.423Z,2.75
2023-05-03T14:21:42.038Z,2.55
2023-05-03T14:24:09.551Z,4.60
2023-05-03T14:26:37.674Z,2.42
2023-05-03T14:29:05.939Z,3.10
2023-05-03T14:31:34.495Z,3.00
2023-05-03T14:34:01.852Z,3.00
2023-05-03T14:36:34.742Z,2.92
2023-05-03T14:39:04.291Z,2.40
2023-05-03T14:41:33.394Z,2.80
2023-05-03T14:44:01.128Z,2.88
2023-05-03T14:46:28.171Z,2.83
2023-05-03T14:48:55.733Z,2.72
2023-05-03T14:51:24.035Z,3.10
2023-05-03T14:53:51.458Z,4.03
2023-05-03T14:56:18.645Z,2.67
2023-05-03T14:58:46.031Z,3.05
2023-05-03T15:01:22.515Z,2.95
2023-05-03T15:03:50.080Z,2.15
2023-05-03T15:06:28.739Z,2.67
2023-05-03T15:08:55.772Z,2.63
2023-05-03T15:11:22.873Z,2.75
2023-05-03T15:13:50.115Z,3.05
2023-05-03T15:16:17.384Z,1.85
2023-05-03T15:18:48.199Z,2.30
2023-05-03T15:21:24.393Z,2.58
2023-05-03T15:23:51.937Z,2.60
2023-05-03T15:26:18.983Z,2.88
2023-05-03T15:28:45.969Z,2.60
2023-05-03T15:31:14.652Z,2.53
2023-05-03T15:33:43.499Z,2.13
2023-05-03T15:36:14.107Z,2.00
2023-05-03T15:38:41.625Z,2.13
2023-05-03T15:41:09.291Z,2.28
2023-05-03T15:43:36.587Z,2.05
2023-05-03T15:46:03.650Z,2.53
2023-05-03T15:48:31.043Z,1.63
2023-05-03T15:50:58.071Z,2.70
2023-05-03T15:53:26.411Z,2.17
2023-05-03T15:55:57.416Z,3.15
2023-05-03T15:58:28.864Z,3.08
2023-05-03T16:00:57.089Z,2.97
2023-05-03T16:03:26.387Z,1.98
2023-05-03T16:05:56.011Z,1.80
2023-05-03T16:08:23.001Z,2.17
2023-05-03T16:10:50.087Z,2.08
2023-05-03T16:13:17.101Z,2.47
2023-05-03T16:15:44.596Z,2.00
2023-05-03T16:18:11.776Z,2.50
2023-05-03T16:20:38.800Z,2.08
2023-05-03T16:23:05.843Z,2.92
2023-05-03T16:25:33.215Z,2.42
2023-05-03T16:28:00.591Z,2.40
2023-05-03T16:30:28.791Z,2.40
2023-05-03T16:32:56.117Z,2.45
2023-05-03T16:35:23.225Z,2.25
2023-05-03T16:37:51.299Z,2.35
2023-05-03T16:40:19.098Z,2.13
2023-05-03T16:42:52.212Z,2.40
2023-05-03T16:45:19.853Z,2.45
2023-05-03T16:47:47.801Z,2.10
2023-05-03T16:50:17.599Z,2.55
2023-05-03T16:52:44.967Z,2.65
2023-05-03T16:55:13.047Z,2.05
2023-05-03T16:57:42.577Z,2.67
2023-05-03T17:00:11.140Z,2.63
2023-05-03T17:02:39.901Z,3.13
2023-05-03T17:05:08.511Z,2.00
2023-05-03T17:07:35.760Z,2.42
2023-05-03T17:10:03.884Z,1.98
2023-05-03T17:12:31.182Z,2.25
2023-05-03T17:14:58.321Z,2.50
2023-05-03T17:17:25.578Z,2.13
2023-05-03T17:19:53.239Z,1.80
2023-05-03T17:22:20.288Z,2.00
2023-05-03T17:24:47.301Z,3.20
2023-05-03T17:27:14.601Z,2.15
2023-05-03T17:29:41.670Z,2.00
2023-05-03T17:32:08.839Z,2.13
2023-05-03T17:34:36.661Z,2.55
2023-05-03T17:37:03.732Z,1.90
2023-05-03T17:39:30.819Z,2.42
2023-05-03T17:41:58.102Z,2.15
2023-05-03T17:44:26.156Z,2.05
2023-05-03T17:46:53.323Z,2.08
2023-05-03T17:49:20.298Z,2.00
2023-05-03T17:51:47.197Z,1.85
2023-05-03T17:54:14.154Z,2.30
2023-05-03T17:56:43.982Z,2.15
2023-05-03T17:59:11.066Z,2.80
2023-05-03T18:01:38.010Z,2.30
2023-05-03T18:04:05.108Z,2.40
2023-05-03T18:06:32.540Z,2.15
2023-05-03T18:08:59.441Z,3.63
2023-05-03T18:11:26.417Z,2.10
2023-05-03T18:13:53.432Z,2.33
2023-05-03T18:16:20.462Z,2.40
2023-05-03T18:18:47.531Z,2.58
2023-05-03T18:21:14.563Z,2.33
2023-05-03T18:23:42.557Z,2.40
2023-05-03T18:26:10.745Z,2.45
2023-05-03T18:28:37.912Z,2.30
2023-05-03T18:31:05.060Z,2.75
2023-05-03T18:33:33.959Z,2.70
2023-05-03T18:36:03.282Z,2.70
2023-05-03T18:38:30.267Z,2.78
2023-05-03T18:40:57.309Z,3.10
2023-05-03T18:43:24.315Z,2.42
2023-05-03T18:45:52.322Z,2.83
2023-05-03T18:48:19.350Z,3.95
2023-05-03T18:50:46.332Z,2.30
2023-05-03T18:53:14.094Z,2.83
2023-05-03T18:55:42.473Z,2.95
2023-05-03T18:58:09.417Z,3.10
2023-05-03T19:00:36.411Z,2.90
2023-05-03T19:03:04.131Z,3.42
2023-05-03T19:05:31.229Z,3.72
2023-05-03T19:07:58.441Z,2.97
2023-05-03T19:10:25.513Z,3.58
2023-05-03T19:12:53.418Z,3.63
2023-05-03T19:15:20.701Z,3.60
2023-05-03T19:17:47.822Z,4.38
2023-05-03T19:20:15.603Z,3.70
2023-05-03T19:22:42.540Z,4.18
2023-05-03T19:25:09.740Z,3.40
2023-05-03T19:27:36.816Z,2.88
2023-05-03T19:30:04.362Z,3.38
2023-05-03T19:32:35.249Z,4.40
2023-05-03T19:35:02.559Z,4.60
2023-05-03T19:37:29.638Z,4.57
2023-05-03T19:39:57.738Z,3.85
2023-05-03T19:42:24.631Z,4.22
2023-05-03T19:44:51.517Z,3.50
2023-05-03T19:47:18.452Z,4.03
2023-05-03T19:49:45.410Z,3.33
2023-05-03T19:52:12.330Z,4.40
2023-05-03T19:54:39.568Z,3.25
2023-05-03T19:57:07.527Z,4.93
2023-05-03T19:59:35.398Z,3.63
2023-05-03T20:02:03.360Z,4.00
2023-05-03T20:04:30.595Z,3.83
2023-05-03T20:06:57.722Z,3.55
2023-05-03T20:09:25.056Z,3.22
2023-05-03T20:11:58.889Z,3.28
2023-05-03T20:14:29.287Z,2.53
2023-05-03T20:16:59.339Z,2.60
2023-05-03T20:19:26.749Z,3.67
2023-05-03T20:21:53.885Z,3.50
2023-05-03T20:24:22.015Z,3.80
2023-05-03T20:26:48.963Z,4.18
2023-05-03T20:29:15.890Z,4.50
2023-05-03T20:31:42.922Z,4.32
2023-05-03T20:34:09.921Z,4.43
2023-05-03T20:36:37.026Z,4.53
2023-05-03T20:39:05.016Z,4.38
2023-05-03T20:41:32.282Z,4.20
2023-05-03T20:43:59.603Z,4.43
2023-05-03T20:46:26.980Z,4.25
2023-05-03T20:48:54.029Z,4.20
2023-05-03T20:51:21.017Z,4.57
2023-05-03T20:53:48.158Z,5.28
2023-05-03T20:56:15.333Z,4.30
2023-05-03T20:58:42.334Z,4.07
2023-05-03T21:01:09.379Z,6.00
2023-05-03T21:03:36.591Z,4.82
2023-05-03T21:06:05.520Z,5.15
2023-05-03T21:08:32.795Z,5.53
2023-05-03T21:10:59.825Z,4.93
2023-05-03T21:13:26.946Z,5.28
2023-05-03T21:15:55.074Z,5.65
2023-05-03T21:18:22.184Z,6.03
2023-05-03T21:20:49.176Z,5.13
2023-05-03T21:23:16.147Z,5.18
2023-05-03T21:25:43.360Z,5.30
2023-05-03T21:28:10.501Z,5.28
2023-05-03T21:30:37.541Z,5.35
2023-05-03T21:33:04.580Z,4.68
2023-05-03T21:35:31.624Z,5.45
2023-05-03T21:37:58.625Z,5.65
2023-05-03T21:40:25.729Z,6.35
2023-05-03T21:42:52.783Z,6.65
2023-05-03T21:45:23.054Z,5.47
2023-05-03T21:47:50.324Z,5.10
2023-05-03T21:50:17.489Z,5.47
2023-05-03T21:52:44.756Z,5.85
2023-05-03T21:55:12.232Z,5.82
2023-05-03T21:57:39.360Z,6.03
2023-05-03T22:00:07.826Z,5.57
2023-05-03T22:02:35.564Z,6.97
2023-05-03T22:05:02.803Z,5.40
2023-05-03T22:07:29.911Z,5.65
2023-05-03T22:09:56.995Z,5.93
2023-05-03T22:12:24.993Z,6.03
2023-05-03T22:14:53.103Z,5.60
2023-05-03T22:17:20.371Z,5.68
2023-05-03T22:19:47.451Z,6.18
2023-05-03T22:22:14.530Z,5.60
2023-05-03T22:24:41.679Z,6.53
2023-05-03T22:27:08.672Z,5.75
2023-05-03T22:29:35.709Z,5.93
2023-05-03T22:32:03.019Z,6.10
2023-05-03T22:34:30.086Z,5.80
2023-05-03T22:36:57.075Z,6.05
2023-05-03T22:39:24.069Z,5.80
2023-05-03T22:41:50.981Z,5.78
2023-05-03T22:44:18.108Z,5.93
2023-05-03T22:46:45.032Z,5.72
2023-05-03T22:49:11.942Z,5.95
2023-05-03T22:51:38.932Z,6.82
2023-05-03T22:54:05.994Z,6.40
2023-05-03T22:56:32.898Z,6.75
2023-05-03T22:58:59.795Z,6.47
2023-05-03T23:01:27.486Z,6.25
2023-05-03T23:03:54.714Z,6.03
2023-05-03T23:06:21.724Z,6.93
2023-05-03T23:08:48.846Z,6.20
2023-05-03T23:11:16.032Z,6.68
2023-05-03T23:13:43.360Z,6.53
2023-05-03T23:16:10.472Z,6.05
2023-05-03T23:18:37.820Z,6.75
2023-05-03T23:21:04.892Z,6.50
2023-05-03T23:23:31.865Z,6.60
2023-05-03T23:25:58.832Z,5.93
2023-05-03T23:28:26.199Z,6.05
2023-05-03T23:30:53.610Z,6.38
2023-05-03T23:33:21.210Z,6.80
2023-05-03T23:35:48.850Z,7.35
2023-05-03T23:38:15.925Z,6.93
2023-05-03T23:40:42.927Z,7.10
2023-05-03T23:43:09.860Z,6.22
2023-05-03T23:45:36.833Z,7.22
2023-05-03T23:48:04.172Z,7.38
2023-05-03T23:50:31.194Z,6.80
2023-05-03T23:52:58.756Z,6.50
2023-05-03T23:55:25.893Z,6.28
2023-05-03T23:57:52.870Z,6.38
